createdAt,value
2018-10-05T00:00:20.835Z,0.00
2018-10-05T00:01:20.824Z,0.00
2018-10-05T00:02:20.821Z,0.00
2018-10-05T00:03:20.812Z,0.00
2018-10-05T00:04:20.807Z,0.00
2018-10-05T00:05:20.800Z,0.00
2018-10-05T00:06:20.792Z,0.00
2018-10-05T00:07:20.785Z,0.00
2018-10-05T00:08:20.780Z,0.00
2018-10-05T00:09:20.777Z,0.00
2018-10-05T00:10:20.769Z,0.00
2018-10-05T00:11:20.757Z,0.00
2018-10-05T00:12:20.754Z,0.00
2018-10-05T00:13:20.748Z,0.00
2018-10-05T00:14:20.744Z,0.00
2018-10-05T00:15:20.736Z,0.00
2018-10-05T00:16:20.745Z,0.00
2018-10-05T00:17:20.726Z,0.00
2018-10-05T00:18:20.718Z,0.00
2018-10-05T00:19:20.713Z,0.00
2018-10-05T00:20:20.779Z,0.00
2018-10-05T00:21:20.696Z,0.00
2018-10-05T00:22:20.689Z,0.00
2018-10-05T00:23:20.693Z,0.00
2018-10-05T00:24:20.677Z,0.00
2018-10-05T00:25:20.683Z,0.00
2018-10-05T00:26:20.663Z,0.00
2018-10-05T00:27:20.658Z,0.00
2018-10-05T00:28:20.651Z,0.00
2018-10-05T00:29:20.644Z,0.00
2018-10-05T00:30:20.637Z,0.00
2018-10-05T00:31:20.649Z,0.00
2018-10-05T00:32:20.657Z,0.00
2018-10-05T00:33:20.617Z,0.00
2018-10-05T00:34:20.609Z,0.00
2018-10-05T00:35:20.609Z,0.00
2018-10-05T00:36:20.597Z,0.00
2018-10-05T00:37:20.597Z,0.00
2018-10-05T00:38:20.585Z,0.00
2018-10-05T00:39:20.620Z,0.00
2018-10-05T00:40:20.600Z,0.00
2018-10-05T00:41:20.569Z,0.00
2018-10-05T00:42:20.560Z,0.00
2018-10-05T00:43:20.556Z,0.00
2018-10-05T00:44:20.547Z,0.00
2018-10-05T00:45:20.541Z,0.00
2018-10-05T00:46:20.533Z,0.00
2018-10-05T00:47:20.530Z,0.00
2018-10-05T00:48:20.528Z,0.00
2018-10-05T00:49:20.512Z,0.00
2018-10-05T00:50:20.510Z,0.00
2018-10-05T00:51:20.501Z,0.00
2018-10-05T00:52:20.499Z,0.00
2018-10-05T00:53:20.541Z,0.00
2018-10-05T00:54:20.484Z,0.00
2018-10-05T00:55:20.471Z,0.00
2018-10-05T00:56:20.479Z,0.00
2018-10-05T00:57:20.465Z,0.00
2018-10-05T00:58:20.458Z,0.00
2018-10-05T00:59:20.449Z,0.00
2018-10-05T01:00:20.440Z,0.00
2018-10-05T01:01:20.455Z,0.00
2018-10-05T01:02:20.452Z,0.00
2018-10-05T01:03:20.422Z,0.00
2018-10-05T01:04:20.414Z,0.00
2018-10-05T01:05:20.413Z,0.00
2018-10-05T01:06:20.396Z,0.00
2018-10-05T01:07:20.401Z,0.00
2018-10-05T01:08:20.393Z,0.00
2018-10-05T01:09:20.386Z,0.00
2018-10-05T01:10:20.379Z,0.00
2018-10-05T01:11:20.396Z,0.00
2018-10-05T01:12:20.364Z,0.00
2018-10-05T01:13:20.357Z,0.00
2018-10-05T01:14:20.352Z,0.00
2018-10-05T01:15:20.344Z,0.00
2018-10-05T01:16:20.337Z,0.00
2018-10-05T01:17:20.333Z,0.00
2018-10-05T01:18:20.325Z,0.00
2018-10-05T01:19:20.316Z,0.00
2018-10-05T01:20:20.321Z,0.00
2018-10-05T01:21:20.308Z,0.00
2018-10-05T01:22:20.296Z,0.00
2018-10-05T01:23:20.291Z,0.00
2018-10-05T01:24:20.289Z,0.00
2018-10-05T01:25:20.276Z,0.00
2018-10-05T01:26:20.274Z,0.00
2018-10-05T01:27:20.267Z,0.00
2018-10-05T01:28:20.262Z,0.00
2018-10-05T01:29:20.252Z,0.00
2018-10-05T02:07:28.835Z,0.00
2018-10-05T02:08:28.794Z,0.00
2018-10-05T02:10:21.699Z,0.00
2018-10-05T02:11:21.667Z,0.00
2018-10-05T02:13:14.575Z,0.00
2018-10-05T02:14:14.543Z,0.00
2018-10-05T02:16:07.432Z,0.00
2018-10-05T02:17:07.413Z,0.00
2018-10-05T02:19:00.312Z,0.00
2018-10-05T02:20:00.289Z,0.00
2018-10-05T02:21:00.282Z,0.00
2018-10-05T02:22:00.274Z,0.00
2018-10-05T02:23:00.264Z,0.00
2018-10-05T02:24:00.259Z,0.00
2018-10-05T02:25:00.251Z,0.00
2018-10-05T02:26:00.241Z,0.00
2018-10-05T02:27:00.235Z,0.00
2018-10-05T02:28:00.227Z,0.00
2018-10-05T02:29:00.218Z,0.00
2018-10-05T02:30:00.215Z,0.00
2018-10-05T02:31:00.204Z,0.00
2018-10-05T02:32:00.197Z,0.00
2018-10-05T02:33:00.265Z,0.00
2018-10-05T02:34:00.185Z,0.00
2018-10-05T02:35:00.177Z,0.00
2018-10-05T02:36:00.171Z,0.00
2018-10-05T02:37:00.170Z,0.00
2018-10-05T02:38:00.156Z,0.00
2018-10-05T02:39:00.145Z,0.00
2018-10-05T02:40:00.139Z,0.00
2018-10-05T02:41:00.133Z,0.00
2018-10-05T02:42:00.131Z,0.00
2018-10-05T02:43:00.122Z,0.00
2018-10-05T02:44:00.112Z,0.00
2018-10-05T02:45:00.137Z,0.00
2018-10-05T02:46:00.102Z,0.00
2018-10-05T02:47:00.095Z,0.00
2018-10-05T02:48:00.088Z,0.00
2018-10-05T02:49:00.083Z,0.00
2018-10-05T02:50:00.080Z,0.00
2018-10-05T02:51:00.089Z,0.00
2018-10-05T02:52:00.065Z,0.00
2018-10-05T02:53:00.057Z,0.00
2018-10-05T02:54:00.049Z,0.00
2018-10-05T02:55:00.036Z,0.00
2018-10-05T02:56:00.035Z,0.00
2018-10-05T02:57:00.028Z,0.00
2018-10-05T02:58:00.023Z,0.00
2018-10-05T02:59:00.012Z,0.00
2018-10-05T03:00:00.008Z,0.00
2018-10-05T03:01:00.004Z,0.00
2018-10-05T03:02:00.003Z,0.00
2018-10-05T03:03:00.024Z,0.00
2018-10-05T03:04:00.024Z,0.00
2018-10-05T03:05:00.021Z,0.00
2018-10-05T03:05:59.984Z,0.00
2018-10-05T03:06:59.978Z,0.00
2018-10-05T03:07:59.970Z,0.00
2018-10-05T03:08:59.971Z,0.00
2018-10-05T03:10:00.778Z,0.00
2018-10-05T03:10:59.956Z,0.00
2018-10-05T03:11:59.958Z,0.00
2018-10-05T03:12:59.946Z,0.00
2018-10-05T03:13:59.947Z,0.00
2018-10-05T03:14:59.918Z,0.00
2018-10-05T03:15:59.913Z,0.00
2018-10-05T03:16:59.921Z,0.00
2018-10-05T03:17:59.916Z,0.00
2018-10-05T03:18:59.927Z,0.00
2018-10-05T03:19:59.883Z,0.00
2018-10-05T03:20:59.908Z,0.00
2018-10-05T03:21:59.873Z,0.00
2018-10-05T03:22:59.883Z,0.00
2018-10-05T03:23:59.864Z,0.00
2018-10-05T03:25:00.791Z,0.00
2018-10-05T03:26:00.778Z,0.00
2018-10-05T03:27:00.778Z,0.00
2018-10-05T03:27:59.834Z,0.00
2018-10-05T03:28:59.871Z,0.00
2018-10-05T03:29:59.826Z,0.00
2018-10-05T03:30:59.831Z,0.00
2018-10-05T03:31:59.806Z,0.00
2018-10-05T03:32:59.816Z,0.00
2018-10-05T03:33:59.817Z,0.00
2018-10-05T03:34:59.814Z,0.00
2018-10-05T03:35:59.782Z,0.00
2018-10-05T03:36:59.776Z,0.00
2018-10-05T03:37:59.772Z,0.00
2018-10-05T03:38:59.780Z,0.00
2018-10-05T03:39:59.770Z,0.00
2018-10-05T03:40:59.749Z,0.00
2018-10-05T03:41:59.749Z,0.00
2018-10-05T03:42:59.730Z,0.00
2018-10-05T03:43:59.746Z,0.00
2018-10-05T03:44:59.741Z,0.00
2018-10-05T03:45:59.719Z,0.00
2018-10-05T03:46:59.717Z,0.00
2018-10-05T03:47:59.710Z,0.00
2018-10-05T03:48:59.721Z,0.00
2018-10-05T03:49:59.689Z,0.00
2018-10-05T03:50:59.680Z,0.00
2018-10-05T03:51:59.698Z,0.00
2018-10-05T03:52:59.668Z,0.00
2018-10-05T03:53:59.669Z,0.00
2018-10-05T03:54:59.649Z,0.00
2018-10-05T03:55:59.653Z,0.00
2018-10-05T03:56:59.636Z,0.00
2018-10-05T03:57:59.649Z,0.00
2018-10-05T03:58:59.658Z,0.00
2018-10-05T03:59:59.617Z,0.00
2018-10-05T04:00:59.613Z,0.00
2018-10-05T04:01:59.603Z,0.00
2018-10-05T04:02:59.597Z,0.00
2018-10-05T04:03:59.625Z,0.00
2018-10-05T04:04:59.609Z,0.00
2018-10-05T04:05:59.600Z,0.00
2018-10-05T04:06:59.588Z,0.00
2018-10-05T04:07:59.565Z,0.00
2018-10-05T04:08:59.565Z,0.00
2018-10-05T04:09:59.577Z,0.00
2018-10-05T04:10:59.568Z,0.00
2018-10-05T04:11:59.540Z,0.00
2018-10-05T04:12:59.521Z,0.00
2018-10-05T04:13:59.514Z,0.00
2018-10-05T04:14:59.504Z,0.00
2018-10-05T04:15:59.501Z,0.00
2018-10-05T04:16:59.495Z,0.00
2018-10-05T04:17:59.487Z,0.00
2018-10-05T04:18:59.478Z,0.00
2018-10-05T04:19:59.469Z,0.00
2018-10-05T04:20:59.469Z,0.00
2018-10-05T04:21:59.459Z,0.00
2018-10-05T04:22:59.450Z,0.00
2018-10-05T04:23:59.446Z,0.00
2018-10-05T04:24:59.441Z,0.00
2018-10-05T04:25:59.446Z,0.00
2018-10-05T04:26:59.439Z,0.00
2018-10-05T04:27:59.415Z,0.00
2018-10-05T04:28:59.412Z,0.00
2018-10-05T04:29:59.419Z,0.00
2018-10-05T04:30:59.421Z,0.00
2018-10-05T04:31:59.389Z,0.00
2018-10-05T04:32:59.384Z,0.00
2018-10-05T04:33:59.379Z,0.00
2018-10-05T04:34:59.371Z,0.00
2018-10-05T04:35:59.361Z,0.00
2018-10-05T04:36:59.357Z,0.00
2018-10-05T04:37:59.351Z,0.00
2018-10-05T04:38:59.338Z,0.00
2018-10-05T04:39:59.332Z,0.00
2018-10-05T04:40:59.336Z,0.00
2018-10-05T04:41:59.323Z,0.00
2018-10-05T04:42:59.319Z,0.00
2018-10-05T04:43:59.333Z,0.00
2018-10-05T04:44:59.300Z,0.00
2018-10-05T04:45:59.292Z,0.00
2018-10-05T04:46:59.284Z,0.00
2018-10-05T04:47:59.277Z,0.00
2018-10-05T04:48:59.272Z,0.00
2018-10-05T04:49:59.270Z,0.00
2018-10-05T04:50:59.259Z,0.00
2018-10-05T04:51:59.253Z,0.00
2018-10-05T04:52:59.252Z,0.00
2018-10-05T04:53:59.241Z,0.00
2018-10-05T04:54:59.248Z,4.00
2018-10-05T04:55:59.226Z,4.00
2018-10-05T04:56:59.281Z,0.00
2018-10-05T04:57:59.221Z,4.00
2018-10-05T04:58:59.207Z,4.00
2018-10-05T04:59:59.202Z,4.00
2018-10-05T05:00:59.195Z,4.00
2018-10-05T05:01:59.189Z,8.00
2018-10-05T05:02:59.183Z,8.00
2018-10-05T05:03:59.179Z,12.00
2018-10-05T05:04:59.170Z,12.00
2018-10-05T05:05:59.169Z,16.00
2018-10-05T05:06:59.158Z,20.00
2018-10-05T05:07:59.150Z,24.00
2018-10-05T05:08:59.148Z,28.00
2018-10-05T05:09:59.142Z,36.00
2018-10-05T05:10:59.135Z,36.00
2018-10-05T05:11:59.139Z,48.00
2018-10-05T05:12:59.144Z,60.00
2018-10-05T05:13:59.117Z,68.00
2018-10-05T05:14:59.107Z,84.00
2018-10-05T05:15:59.418Z,96.00
2018-10-05T05:16:59.098Z,112.00
2018-10-05T05:17:59.084Z,128.00
2018-10-05T05:18:59.086Z,148.00
2018-10-05T05:19:59.081Z,176.00
2018-10-05T05:20:59.089Z,204.00
2018-10-05T05:21:59.074Z,228.00
2018-10-05T05:22:59.057Z,264.00
2018-10-05T05:23:59.054Z,296.00
2018-10-05T05:24:59.049Z,328.00
2018-10-05T05:25:59.039Z,364.00
2018-10-05T05:26:59.040Z,400.00
2018-10-05T05:27:59.060Z,440.00
2018-10-05T05:28:59.029Z,484.00
2018-10-05T05:29:59.018Z,528.00
2018-10-05T05:30:59.007Z,576.00
2018-10-05T05:31:59.001Z,628.00
2018-10-05T05:32:58.998Z,676.00
2018-10-05T05:33:59.030Z,728.00
2018-10-05T05:34:58.980Z,784.00
2018-10-05T05:35:58.985Z,840.00
2018-10-05T05:36:58.967Z,896.00
2018-10-05T05:37:58.963Z,952.00
2018-10-05T05:38:58.952Z,1012.00
2018-10-05T05:39:58.951Z,1072.00
2018-10-05T05:40:58.947Z,1128.00
2018-10-05T05:41:58.937Z,1184.00
2018-10-05T05:42:58.929Z,1244.00
2018-10-05T05:43:58.917Z,1300.00
2018-10-05T05:44:58.918Z,1356.00
2018-10-05T05:45:58.909Z,1412.00
2018-10-05T05:46:59.034Z,1472.00
2018-10-05T05:47:58.898Z,1548.00
2018-10-05T05:48:58.905Z,1580.00
2018-10-05T05:49:58.886Z,1644.00
2018-10-05T05:50:58.879Z,1788.00
2018-10-05T05:51:58.870Z,1928.00
2018-10-05T05:52:58.866Z,2012.00
2018-10-05T05:53:58.883Z,2072.00
2018-10-05T05:54:58.855Z,2144.00
2018-10-05T05:55:58.847Z,2224.00
2018-10-05T05:56:58.842Z,2260.00
2018-10-05T05:57:58.829Z,2352.00
2018-10-05T05:58:58.828Z,2404.00
2018-10-05T05:59:58.814Z,2492.00
2018-10-05T06:00:58.835Z,2596.00
2018-10-05T06:01:58.804Z,2728.00
2018-10-05T06:02:58.799Z,2896.00
2018-10-05T06:03:58.786Z,2896.00
2018-10-05T06:04:58.779Z,3068.00
2018-10-05T06:05:58.782Z,3232.00
2018-10-05T06:06:58.772Z,3272.00
2018-10-05T06:07:59.835Z,3348.00
2018-10-05T06:08:58.760Z,3524.00
2018-10-05T06:09:58.787Z,3580.00
2018-10-05T06:10:58.762Z,3676.00
2018-10-05T06:11:58.743Z,3784.00
2018-10-05T06:12:58.760Z,3876.00
2018-10-05T06:13:58.731Z,4052.00
2018-10-05T06:14:58.726Z,4216.00
2018-10-05T06:15:58.759Z,4400.00
2018-10-05T06:16:58.714Z,4344.00
2018-10-05T06:17:58.705Z,4388.00
2018-10-05T06:18:58.698Z,4596.00
2018-10-05T06:19:58.693Z,4552.00
2018-10-05T06:20:58.677Z,4504.00
2018-10-05T06:21:58.811Z,4808.00
2018-10-05T06:22:58.675Z,4860.00
2018-10-05T06:23:58.667Z,5052.00
2018-10-05T06:24:58.662Z,5288.00
2018-10-05T06:25:58.659Z,5184.00
2018-10-05T06:26:58.654Z,5336.00
2018-10-05T06:27:58.648Z,5388.00
2018-10-05T06:28:58.638Z,5360.00
2018-10-05T06:29:58.636Z,5848.00
2018-10-05T06:30:58.810Z,5764.00
2018-10-05T06:31:58.626Z,6096.00
2018-10-05T06:32:58.628Z,6484.00
2018-10-05T06:33:58.616Z,6000.00
2018-10-05T06:34:58.609Z,6356.00
2018-10-05T06:35:58.604Z,6728.00
2018-10-05T06:36:58.598Z,6460.00
2018-10-05T06:37:58.655Z,7156.00
2018-10-05T06:38:58.599Z,7280.00
2018-10-05T06:39:58.582Z,7248.00
2018-10-05T06:40:58.568Z,7288.00
2018-10-05T06:41:58.594Z,7300.00
2018-10-05T06:42:58.565Z,7620.00
2018-10-05T06:43:58.561Z,7452.00
2018-10-05T06:44:58.556Z,7560.00
2018-10-05T06:45:58.548Z,7640.00
2018-10-05T06:46:58.548Z,7744.00
2018-10-05T06:47:58.545Z,8028.00
2018-10-05T06:48:58.537Z,7680.00
2018-10-05T06:49:58.533Z,7524.00
2018-10-05T06:50:58.536Z,8088.00
2018-10-05T06:51:58.531Z,8240.00
2018-10-05T06:52:58.516Z,8108.00
2018-10-05T06:53:58.511Z,8076.00
2018-10-05T06:54:58.506Z,8632.00
2018-10-05T06:55:58.505Z,8812.00
2018-10-05T06:56:58.499Z,8628.00
2018-10-05T06:57:58.495Z,8848.00
2018-10-05T06:58:58.488Z,8632.00
2018-10-05T06:59:58.483Z,9328.00
2018-10-05T07:00:58.481Z,9516.00
2018-10-05T07:01:58.603Z,9604.00
2018-10-05T07:02:58.476Z,10012.00
2018-10-05T07:03:58.471Z,10972.00
2018-10-05T07:04:58.459Z,10428.00
2018-10-05T07:05:58.458Z,9916.00
2018-10-05T07:06:58.450Z,10024.00
2018-10-05T07:07:58.488Z,10032.00
2018-10-05T07:08:58.442Z,9920.00
2018-10-05T07:09:58.442Z,10592.00
2018-10-05T07:10:58.434Z,11924.00
2018-10-05T07:11:58.428Z,11804.00
2018-10-05T07:12:58.425Z,11864.00
2018-10-05T07:13:58.421Z,11908.00
2018-10-05T07:14:58.419Z,12704.00
2018-10-05T07:15:58.480Z,13276.00
2018-10-05T07:16:58.441Z,12760.00
2018-10-05T07:17:58.406Z,13080.00
2018-10-05T07:18:58.401Z,12724.00
2018-10-05T07:19:58.398Z,12484.00
2018-10-05T07:20:58.395Z,13596.00
2018-10-05T07:21:58.394Z,13336.00
2018-10-05T07:22:58.389Z,12836.00
2018-10-05T07:23:58.385Z,13232.00
2018-10-05T07:24:58.380Z,12676.00
2018-10-05T07:25:58.376Z,11888.00
2018-10-05T07:26:58.376Z,12796.00
2018-10-05T07:27:58.372Z,13016.00
2018-10-05T07:28:58.367Z,15256.00
2018-10-05T07:29:58.366Z,14100.00
2018-10-05T07:30:58.381Z,13920.00
2018-10-05T07:31:58.359Z,13716.00
2018-10-05T07:32:58.356Z,14704.00
2018-10-05T07:33:58.351Z,14052.00
2018-10-05T07:34:58.347Z,14856.00
2018-10-05T07:35:58.345Z,15192.00
2018-10-05T07:36:58.371Z,14344.00
2018-10-05T07:37:58.342Z,16672.00
2018-10-05T07:38:58.336Z,16224.00
2018-10-05T07:39:58.334Z,12948.00
2018-10-05T07:40:58.333Z,13832.00
2018-10-05T07:41:58.333Z,17632.00
2018-10-05T07:42:58.352Z,16480.00
2018-10-05T07:43:58.328Z,15516.00
2018-10-05T07:44:58.327Z,13632.00
2018-10-05T07:45:58.313Z,15628.00
2018-10-05T07:46:58.322Z,15084.00
2018-10-05T07:47:58.322Z,15548.00
2018-10-05T07:48:58.317Z,15548.00
2018-10-05T07:49:58.307Z,13448.00
2018-10-05T07:50:58.316Z,15104.00
2018-10-05T07:51:58.397Z,14948.00
2018-10-05T07:52:58.334Z,14788.00
2018-10-05T07:53:58.314Z,15628.00
2018-10-05T07:54:58.319Z,17728.00
2018-10-05T07:55:58.312Z,16992.00
2018-10-05T07:56:58.306Z,18464.00
2018-10-05T07:57:58.349Z,19040.00
2018-10-05T07:58:58.311Z,18784.00
2018-10-05T07:59:58.308Z,19040.00
2018-10-05T08:00:58.308Z,19424.00
2018-10-05T08:01:58.307Z,20224.00
2018-10-05T08:02:58.309Z,18144.00
2018-10-05T08:03:58.302Z,19520.00
2018-10-05T08:04:58.307Z,17024.00
2018-10-05T08:05:58.308Z,17792.00
2018-10-05T08:06:58.310Z,16352.00
2018-10-05T08:07:58.313Z,14944.00
2018-10-05T08:08:58.310Z,15724.00
2018-10-05T08:09:58.313Z,18976.00
2018-10-05T08:10:58.317Z,17056.00
2018-10-05T08:11:58.323Z,20928.00
2018-10-05T08:12:58.314Z,17056.00
2018-10-05T08:13:58.317Z,20736.00
2018-10-05T08:14:58.320Z,16348.00
2018-10-05T08:15:58.311Z,21184.00
2018-10-05T08:16:58.321Z,16928.00
2018-10-05T08:17:58.322Z,19712.00
2018-10-05T08:18:58.322Z,19296.00
2018-10-05T08:19:58.325Z,11276.00
2018-10-05T08:20:58.381Z,21568.00
2018-10-05T08:21:58.330Z,18304.00
2018-10-05T08:22:58.329Z,19840.00
2018-10-05T08:23:58.334Z,19744.00
2018-10-05T08:24:58.337Z,17664.00
2018-10-05T08:25:58.334Z,13764.00
2018-10-05T08:26:58.368Z,24576.00
2018-10-05T08:27:58.397Z,18752.00
2018-10-05T08:28:58.342Z,15732.00
2018-10-05T08:29:58.345Z,18432.00
2018-10-05T08:30:58.348Z,19264.00
2018-10-05T08:31:58.352Z,17440.00
2018-10-05T08:32:58.352Z,24416.00
2018-10-05T08:33:58.364Z,20768.00
2018-10-05T08:34:58.360Z,21408.00
2018-10-05T08:35:58.364Z,18144.00
2018-10-05T08:36:58.365Z,17408.00
2018-10-05T08:37:58.369Z,16108.00
2018-10-05T08:38:58.376Z,19744.00
2018-10-05T08:39:58.544Z,20576.00
2018-10-05T08:40:58.382Z,19136.00
2018-10-05T08:41:58.384Z,18336.00
2018-10-05T08:42:58.386Z,16992.00
2018-10-05T08:43:58.428Z,15676.00
2018-10-05T08:44:58.397Z,21248.00
2018-10-05T08:45:58.414Z,16800.00
2018-10-05T08:46:58.407Z,17024.00
2018-10-05T08:47:58.411Z,17632.00
2018-10-05T08:48:58.415Z,16736.00
2018-10-05T08:49:58.417Z,16576.00
2018-10-05T08:50:58.434Z,16640.00
2018-10-05T08:51:58.442Z,16608.00
2018-10-05T08:52:58.434Z,17536.00
2018-10-05T08:53:58.441Z,17888.00
2018-10-05T08:54:58.447Z,17440.00
2018-10-05T08:55:58.449Z,18048.00
2018-10-05T08:56:58.454Z,17952.00
2018-10-05T08:57:58.468Z,16768.00
2018-10-05T08:58:58.492Z,14724.00
2018-10-05T08:59:58.483Z,15388.00
2018-10-05T09:00:58.478Z,16640.00
2018-10-05T09:01:58.489Z,16896.00
2018-10-05T09:02:58.491Z,16384.00
2018-10-05T09:03:58.504Z,15904.00
2018-10-05T09:04:58.506Z,15532.00
2018-10-05T09:05:58.520Z,15396.00
2018-10-05T09:06:58.521Z,15228.00
2018-10-05T09:07:58.525Z,15296.00
2018-10-05T09:08:58.533Z,15208.00
2018-10-05T09:09:58.539Z,15120.00
2018-10-05T09:10:58.553Z,15156.00
2018-10-05T09:11:58.553Z,15172.00
2018-10-05T09:12:58.554Z,15092.00
2018-10-05T09:13:58.569Z,15080.00
2018-10-05T09:14:58.578Z,15064.00
2018-10-05T09:15:58.603Z,15012.00
2018-10-05T09:16:58.594Z,15012.00
2018-10-05T09:17:58.600Z,15020.00
2018-10-05T09:18:58.611Z,14908.00
2018-10-05T09:19:58.620Z,14940.00
2018-10-05T09:20:58.629Z,14932.00
2018-10-05T09:21:58.646Z,14884.00
2018-10-05T09:22:58.645Z,14956.00
2018-10-05T09:23:58.695Z,14920.00
2018-10-05T09:24:58.657Z,14816.00
2018-10-05T09:25:58.702Z,14776.00
2018-10-05T09:26:58.681Z,14744.00
2018-10-05T09:27:58.689Z,14656.00
2018-10-05T09:28:58.697Z,14644.00
2018-10-05T09:29:58.714Z,14528.00
2018-10-05T09:30:58.712Z,14592.00
2018-10-05T09:31:58.724Z,14628.00
2018-10-05T09:32:58.729Z,14556.00
2018-10-05T09:33:58.744Z,14532.00
2018-10-05T09:34:58.760Z,14612.00
2018-10-05T09:35:58.763Z,14668.00
2018-10-05T09:36:58.775Z,14804.00
2018-10-05T09:37:58.902Z,14600.00
2018-10-05T09:38:58.793Z,14464.00
2018-10-05T09:39:58.825Z,14428.00
2018-10-05T09:40:58.833Z,14540.00
2018-10-05T09:41:58.840Z,14680.00
2018-10-05T09:42:58.831Z,14524.00
2018-10-05T09:43:58.850Z,14292.00
2018-10-05T09:44:58.947Z,14240.00
2018-10-05T09:45:58.869Z,14184.00
2018-10-05T09:46:58.923Z,14164.00
2018-10-05T09:47:58.881Z,14232.00
2018-10-05T09:48:58.906Z,14300.00
2018-10-05T09:49:58.905Z,14292.00
2018-10-05T09:50:58.913Z,14224.00
2018-10-05T09:51:58.937Z,14152.00
2018-10-05T09:52:58.937Z,14020.00
2018-10-05T09:53:58.946Z,13988.00
2018-10-05T09:54:58.945Z,14052.00
2018-10-05T09:55:58.964Z,14036.00
2018-10-05T09:56:58.977Z,14060.00
2018-10-05T09:57:58.993Z,14156.00
2018-10-05T09:58:58.999Z,14120.00
2018-10-05T09:59:59.089Z,14080.00
2018-10-05T10:00:59.014Z,14044.00
2018-10-05T10:01:59.030Z,14072.00
2018-10-05T10:02:59.039Z,14068.00
2018-10-05T10:03:59.055Z,13912.00
2018-10-05T10:04:59.061Z,13924.00
2018-10-05T10:05:59.070Z,13956.00
2018-10-05T10:06:59.117Z,13920.00
2018-10-05T10:07:59.189Z,13876.00
2018-10-05T10:08:59.109Z,13836.00
2018-10-05T10:09:59.124Z,13832.00
2018-10-05T10:10:59.126Z,13776.00
2018-10-05T10:11:59.134Z,13780.00
2018-10-05T10:12:59.146Z,13832.00
2018-10-05T10:13:59.171Z,13908.00
2018-10-05T10:14:59.166Z,13852.00
2018-10-05T10:15:59.177Z,13848.00
2018-10-05T10:16:59.190Z,13824.00
2018-10-05T10:17:59.204Z,13820.00
2018-10-05T10:18:59.212Z,13752.00
2018-10-05T10:19:59.215Z,13676.00
2018-10-05T10:20:59.234Z,13648.00
2018-10-05T10:21:59.243Z,13612.00
2018-10-05T10:22:59.250Z,13600.00
2018-10-05T10:23:59.280Z,13540.00
2018-10-05T10:24:59.272Z,13576.00
2018-10-05T10:25:59.283Z,13564.00
2018-10-05T10:26:59.329Z,13520.00
2018-10-05T10:27:59.386Z,13484.00
2018-10-05T10:28:59.393Z,13496.00
2018-10-05T10:29:59.316Z,13540.00
2018-10-05T10:30:59.336Z,13628.00
2018-10-05T10:31:59.343Z,13588.00
2018-10-05T10:32:59.358Z,13532.00
2018-10-05T10:33:59.367Z,13496.00
2018-10-05T10:34:59.376Z,13520.00
2018-10-05T10:35:59.388Z,13552.00
2018-10-05T10:36:59.394Z,13564.00
2018-10-05T10:37:59.406Z,13596.00
2018-10-05T10:38:59.416Z,13564.00
2018-10-05T10:39:59.480Z,13504.00
2018-10-05T10:40:59.455Z,13432.00
2018-10-05T10:41:59.448Z,13476.00
2018-10-05T10:42:59.457Z,13448.00
2018-10-05T10:43:59.466Z,13416.00
2018-10-05T10:44:59.480Z,13288.00
2018-10-05T10:45:59.486Z,13236.00
2018-10-05T10:46:59.493Z,13252.00
2018-10-05T10:47:59.534Z,13296.00
2018-10-05T10:48:59.515Z,13260.00
2018-10-05T10:49:59.536Z,13136.00
2018-10-05T10:50:59.535Z,13104.00
2018-10-05T10:51:59.542Z,13084.00
2018-10-05T10:52:59.563Z,12968.00
2018-10-05T10:53:59.614Z,12948.00
2018-10-05T10:54:59.623Z,12968.00
2018-10-05T10:55:59.584Z,12940.00
2018-10-05T10:56:59.600Z,13012.00
2018-10-05T10:57:59.602Z,12984.00
2018-10-05T10:58:59.610Z,12976.00
2018-10-05T10:59:59.620Z,12892.00
2018-10-05T11:00:59.640Z,12856.00
2018-10-05T11:01:59.643Z,12796.00
2018-10-05T11:02:59.659Z,12696.00
2018-10-05T11:03:59.700Z,12612.00
2018-10-05T11:04:59.766Z,12652.00
2018-10-05T11:05:59.685Z,12712.00
2018-10-05T11:06:59.688Z,12652.00
2018-10-05T11:07:59.695Z,12508.00
2018-10-05T11:08:59.712Z,12460.00
2018-10-05T11:09:59.721Z,12432.00
2018-10-05T11:10:59.758Z,12484.00
2018-10-05T11:11:59.755Z,12484.00
2018-10-05T11:12:59.748Z,12428.00
2018-10-05T11:13:59.764Z,12440.00
2018-10-05T11:14:59.772Z,12400.00
2018-10-05T11:15:59.783Z,12448.00
2018-10-05T11:16:59.837Z,12512.00
2018-10-05T11:17:59.803Z,12424.00
2018-10-05T11:18:59.814Z,12320.00
2018-10-05T11:19:59.827Z,12256.00
2018-10-05T11:20:59.833Z,12328.00
2018-10-05T11:21:59.843Z,12344.00
2018-10-05T11:22:59.856Z,12372.00
2018-10-05T11:23:59.866Z,12292.00
2018-10-05T11:24:59.903Z,12268.00
2018-10-05T11:25:59.889Z,12380.00
2018-10-05T11:26:59.899Z,12388.00
2018-10-05T11:27:59.909Z,12320.00
2018-10-05T11:28:59.919Z,12268.00
2018-10-05T11:29:59.930Z,12152.00
2018-10-05T11:30:59.940Z,12132.00
2018-10-05T11:31:59.961Z,12208.00
2018-10-05T11:32:59.961Z,12144.00
2018-10-05T11:33:59.976Z,12096.00
2018-10-05T11:35:00.008Z,12128.00
2018-10-05T11:35:59.995Z,12144.00
2018-10-05T11:37:00.003Z,12052.00
2018-10-05T11:38:00.041Z,11924.00
2018-10-05T11:39:00.028Z,11948.00
2018-10-05T11:40:00.036Z,12048.00
2018-10-05T11:41:00.048Z,12152.00
2018-10-05T11:42:00.058Z,12132.00
2018-10-05T11:43:00.063Z,12012.00
2018-10-05T11:44:00.081Z,11892.00
2018-10-05T11:45:00.088Z,11912.00
2018-10-05T11:46:00.099Z,11916.00
2018-10-05T11:47:00.121Z,11924.00
2018-10-05T11:48:00.119Z,11964.00
2018-10-05T11:49:00.140Z,11864.00
2018-10-05T11:50:00.140Z,11796.00
2018-10-05T11:51:00.154Z,11728.00
2018-10-05T11:52:00.158Z,11760.00
2018-10-05T11:53:00.168Z,11736.00
2018-10-05T11:54:00.191Z,11696.00
2018-10-05T11:55:00.194Z,11772.00
2018-10-05T11:56:00.206Z,11808.00
2018-10-05T11:57:00.222Z,11788.00
2018-10-05T11:58:00.226Z,11724.00
2018-10-05T11:59:00.240Z,11708.00
2018-10-05T12:00:00.246Z,11584.00
2018-10-05T12:01:00.258Z,11496.00
2018-10-05T12:02:00.266Z,11416.00
2018-10-05T12:03:00.280Z,11324.00
2018-10-05T12:04:00.288Z,11392.00
2018-10-05T12:05:00.317Z,11364.00
2018-10-05T12:06:00.313Z,11296.00
2018-10-05T12:07:00.319Z,11280.00
2018-10-05T12:08:00.331Z,11284.00
2018-10-05T12:09:00.341Z,11248.00
2018-10-05T12:10:00.355Z,11152.00
2018-10-05T12:11:00.358Z,10684.00
2018-10-05T12:12:00.378Z,10196.00
2018-10-05T12:13:00.383Z,9760.00
2018-10-05T12:14:00.393Z,9068.00
2018-10-05T12:15:00.405Z,7280.00
2018-10-05T12:16:00.422Z,5528.00
2018-10-05T12:17:00.429Z,5016.00
2018-10-05T12:18:00.453Z,4788.00
2018-10-05T12:19:00.439Z,4640.00
2018-10-05T12:20:00.517Z,4584.00
2018-10-05T12:21:00.458Z,4564.00
2018-10-05T12:22:00.465Z,4552.00
2018-10-05T12:23:00.472Z,4552.00
2018-10-05T12:24:00.476Z,4552.00
2018-10-05T12:25:00.480Z,4556.00
2018-10-05T12:26:00.486Z,4536.00
2018-10-05T12:27:00.512Z,4504.00
2018-10-05T12:28:00.500Z,4480.00
2018-10-05T12:29:00.507Z,4464.00
2018-10-05T12:30:00.510Z,4452.00
2018-10-05T12:31:00.520Z,4440.00
2018-10-05T12:32:00.520Z,4428.00
2018-10-05T12:33:00.526Z,4416.00
2018-10-05T12:34:00.529Z,4412.00
2018-10-05T12:35:00.534Z,4404.00
2018-10-05T12:36:00.539Z,4400.00
2018-10-05T12:37:00.586Z,4400.00
2018-10-05T12:38:00.545Z,4404.00
2018-10-05T12:39:00.544Z,4404.00
2018-10-05T12:40:00.551Z,4392.00
2018-10-05T12:41:00.550Z,4376.00
2018-10-05T12:42:00.610Z,4344.00
2018-10-05T12:43:00.556Z,4332.00
2018-10-05T12:44:00.560Z,4328.00
2018-10-05T12:45:00.565Z,4316.00
2018-10-05T12:46:00.567Z,4308.00
2018-10-05T12:47:00.565Z,4300.00
2018-10-05T12:48:00.567Z,4296.00
2018-10-05T12:49:00.569Z,4296.00
2018-10-05T12:50:00.627Z,4300.00
2018-10-05T12:51:00.570Z,4304.00
2018-10-05T12:52:00.574Z,4308.00
2018-10-05T12:53:00.577Z,4308.00
2018-10-05T12:54:00.574Z,4304.00
2018-10-05T12:55:00.579Z,4296.00
2018-10-05T12:56:00.578Z,4296.00
2018-10-05T12:57:00.582Z,4300.00
2018-10-05T12:58:00.621Z,4296.00
2018-10-05T12:59:00.586Z,4296.00
2018-10-05T13:00:00.581Z,4304.00
2018-10-05T13:01:00.579Z,4312.00
2018-10-05T13:02:00.581Z,4324.00